createdAt,value
2023-03-29T00:05:46.526Z,7.28
2023-03-29T00:08:15.549Z,7.80
2023-03-29T00:10:43.926Z,7.60
2023-03-29T00:13:12.742Z,7.75
2023-03-29T00:15:42.778Z,7.10
2023-03-29T00:18:11.766Z,7.40
2023-03-29T00:20:40.568Z,7.60
2023-03-29T00:23:10.808Z,8.25
2023-03-29T00:25:39.137Z,7.80
2023-03-29T00:28:08.105Z,7.10
2023-03-29T00:30:37.255Z,9.23
2023-03-29T00:33:06.212Z,8.98
2023-03-29T00:35:34.992Z,7.40
2023-03-29T00:38:06.268Z,8.15
2023-03-29T00:40:36.576Z,7.32
2023-03-29T00:43:07.130Z,7.35
2023-03-29T00:45:36.489Z,7.55
2023-03-29T00:48:07.761Z,7.90
2023-03-29T00:50:39.698Z,7.93
2023-03-29T00:53:13.194Z,6.97
2023-03-29T00:55:46.262Z,7.22
2023-03-29T00:58:17.326Z,6.88
2023-03-29T01:00:52.261Z,7.63
2023-03-29T01:03:24.901Z,6.97
2023-03-29T01:05:57.726Z,8.07
2023-03-29T01:08:29.615Z,6.50
2023-03-29T01:11:04.316Z,7.82
2023-03-29T01:13:40.445Z,6.43
2023-03-29T01:16:10.262Z,7.13
2023-03-29T01:18:39.796Z,8.25
2023-03-29T01:21:19.541Z,7.30
2023-03-29T01:24:07.342Z,6.93
2023-03-29T01:26:51.223Z,6.10
2023-03-29T01:29:26.398Z,7.10
2023-03-29T01:31:59.373Z,8.18
2023-03-29T01:34:34.386Z,6.72
2023-03-29T01:37:07.181Z,7.80
2023-03-29T01:39:36.287Z,8.13
2023-03-29T01:42:14.478Z,7.15
2023-03-29T01:44:49.228Z,8.88
2023-03-29T01:47:21.742Z,7.13
2023-03-29T01:49:58.666Z,7.93
2023-03-29T01:52:32.598Z,7.88
2023-03-29T01:55:05.831Z,7.75
2023-03-29T01:57:35.207Z,7.43
2023-03-29T02:00:10.537Z,6.53
2023-03-29T02:02:41.763Z,7.30
2023-03-29T02:05:12.689Z,7.65
2023-03-29T02:07:42.074Z,7.68
2023-03-29T02:10:11.702Z,7.68
2023-03-29T02:12:40.525Z,7.78
2023-03-29T02:15:14.542Z,8.05
2023-03-29T02:17:44.301Z,7.05
2023-03-29T02:20:17.684Z,7.75
2023-03-29T02:22:51.292Z,8.38
2023-03-29T02:25:22.863Z,7.60
2023-03-29T02:27:51.945Z,7.82
2023-03-29T02:30:22.557Z,8.65
2023-03-29T02:32:59.631Z,7.60
2023-03-29T02:35:34.545Z,7.75
2023-03-29T02:38:05.921Z,7.05
2023-03-29T02:40:35.482Z,8.18
2023-03-29T02:43:08.427Z,7.82
2023-03-29T02:45:40.859Z,7.10
2023-03-29T02:48:12.268Z,8.27
2023-03-29T02:50:42.262Z,7.63
2023-03-29T02:53:14.244Z,7.82
2023-03-29T02:55:46.951Z,8.13
2023-03-29T02:58:16.228Z,8.55
2023-03-29T03:00:48.856Z,7.55
2023-03-29T03:03:17.823Z,8.13
2023-03-29T03:05:51.180Z,8.20
2023-03-29T03:10:49.204Z,8.68
2023-03-29T03:13:19.181Z,8.48
2023-03-29T03:15:49.734Z,9.50
2023-03-29T03:18:18.720Z,7.93
2023-03-29T03:20:56.514Z,8.73
2023-03-29T03:23:25.505Z,8.75
2023-03-29T03:25:54.269Z,8.68
2023-03-29T03:28:24.381Z,8.60
2023-03-29T03:30:56.052Z,7.32
2023-03-29T03:36:13.019Z,10.38
2023-03-29T03:38:45.284Z,8.85
2023-03-29T03:41:14.635Z,10.77
2023-03-29T03:43:46.051Z,8.27
2023-03-29T03:46:16.461Z,9.90
2023-03-29T03:48:46.343Z,8.77
2023-03-29T03:51:22.280Z,10.35
2023-03-29T03:53:52.417Z,8.98
2023-03-29T03:56:36.077Z,10.25
2023-03-29T03:59:10.938Z,9.80
2023-03-29T04:01:50.604Z,8.68
2023-03-29T04:04:23.411Z,9.23
2023-03-29T04:07:03.846Z,8.35
2023-03-29T04:09:33.694Z,10.40
2023-03-29T04:12:25.844Z,8.55
2023-03-29T04:14:54.888Z,9.10
2023-03-29T04:17:27.313Z,9.23
2023-03-29T04:20:22.155Z,9.45
2023-03-29T04:22:51.272Z,9.60
2023-03-29T04:25:21.582Z,9.35
2023-03-29T04:27:50.990Z,9.05
2023-03-29T04:30:35.469Z,8.20
2023-03-29T04:33:11.774Z,7.93
2023-03-29T04:35:43.937Z,8.55
2023-03-29T04:38:16.846Z,10.18
2023-03-29T04:40:47.408Z,9.23
2023-03-29T04:43:25.590Z,8.70
2023-03-29T04:46:10.151Z,8.45
2023-03-29T04:48:55.226Z,9.30
2023-03-29T04:51:33.392Z,10.07
2023-03-29T04:54:02.465Z,9.30
2023-03-29T04:56:33.118Z,9.70
2023-03-29T04:59:31.142Z,8.75
2023-03-29T05:02:01.112Z,7.18
2023-03-29T05:04:31.335Z,9.20
2023-03-29T05:07:08.983Z,9.07
2023-03-29T05:09:37.855Z,9.85
2023-03-29T05:12:07.215Z,7.88
2023-03-29T05:14:48.086Z,9.73
2023-03-29T05:17:16.828Z,8.00
2023-03-29T05:19:47.998Z,7.28
2023-03-29T05:22:17.566Z,8.63
2023-03-29T05:24:47.385Z,8.35
2023-03-29T05:27:19.114Z,10.30
2023-03-29T05:29:59.733Z,8.52
2023-03-29T05:32:39.275Z,8.75
2023-03-29T05:35:12.033Z,8.45
2023-03-29T05:37:40.655Z,10.07
2023-03-29T05:40:10.668Z,9.45
2023-03-29T05:42:56.286Z,8.93
2023-03-29T05:45:25.244Z,6.70
2023-03-29T05:47:58.317Z,8.70
2023-03-29T05:50:28.979Z,9.87
2023-03-29T05:52:58.185Z,10.60
2023-03-29T05:55:27.135Z,10.23
2023-03-29T05:57:56.661Z,8.18
2023-03-29T06:00:31.943Z,9.05
2023-03-29T06:03:21.178Z,9.98
2023-03-29T06:05:57.838Z,9.18
2023-03-29T06:08:27.780Z,9.43
2023-03-29T06:11:16.731Z,8.15
2023-03-29T06:14:19.117Z,8.07
2023-03-29T06:16:55.121Z,8.23
2023-03-29T06:19:24.356Z,8.93
2023-03-29T06:21:54.496Z,8.43
2023-03-29T06:24:27.283Z,7.88
2023-03-29T06:27:03.174Z,7.65
2023-03-29T06:29:32.858Z,8.68
2023-03-29T06:32:02.247Z,8.60
2023-03-29T06:34:48.213Z,8.10
2023-03-29T06:37:26.164Z,9.23
2023-03-29T06:40:06.954Z,9.10
2023-03-29T06:42:46.146Z,8.75
2023-03-29T06:45:41.026Z,8.40
2023-03-29T06:48:19.429Z,8.55
2023-03-29T06:50:49.189Z,7.78
2023-03-29T06:53:20.545Z,8.13
2023-03-29T06:55:56.452Z,7.20
2023-03-29T06:58:42.583Z,7.78
2023-03-29T07:01:28.664Z,7.80
2023-03-29T07:04:09.513Z,8.02
2023-03-29T07:07:03.594Z,8.38
2023-03-29T07:09:40.015Z,8.05
2023-03-29T07:12:27.598Z,6.88
2023-03-29T07:15:01.437Z,6.30
2023-03-29T07:17:50.581Z,6.10
2023-03-29T07:20:19.734Z,5.72
2023-03-29T07:22:52.349Z,6.35
2023-03-29T07:25:26.251Z,5.18
2023-03-29T07:27:55.354Z,6.20
2023-03-29T07:30:29.659Z,6.90
2023-03-29T07:33:12.382Z,5.43
2023-03-29T07:35:49.259Z,5.40
2023-03-29T07:38:18.640Z,6.63
2023-03-29T07:40:53.768Z,5.40
2023-03-29T07:43:51.943Z,5.28
2023-03-29T07:46:25.509Z,5.20
2023-03-29T07:48:56.749Z,6.13
2023-03-29T07:51:27.004Z,5.60
2023-03-29T07:54:05.559Z,4.93
2023-03-29T07:56:56.839Z,5.53
2023-03-29T07:59:36.649Z,5.45
2023-03-29T08:02:11.769Z,4.30
2023-03-29T08:04:43.615Z,6.05
2023-03-29T08:07:20.107Z,5.57
2023-03-29T08:09:57.926Z,5.93
2023-03-29T08:12:49.416Z,6.15
2023-03-29T08:15:19.806Z,5.68
2023-03-29T08:17:48.894Z,4.72
2023-03-29T08:20:17.905Z,4.40
2023-03-29T08:22:49.634Z,4.30
2023-03-29T08:25:47.237Z,4.22
2023-03-29T08:28:19.235Z,3.97
2023-03-29T08:30:52.903Z,3.97
2023-03-29T08:33:22.249Z,5.83
2023-03-29T08:36:01.174Z,3.20
2023-03-29T08:38:33.431Z,3.75
2023-03-29T08:41:02.543Z,3.53
2023-03-29T08:43:51.158Z,3.28
2023-03-29T08:46:35.103Z,2.90
2023-03-29T08:49:21.805Z,3.03
2023-03-29T08:51:54.861Z,3.08
2023-03-29T08:54:27.217Z,3.38
2023-03-29T08:57:15.837Z,3.78
2023-03-29T08:59:54.321Z,2.90
2023-03-29T09:02:26.562Z,2.80
2023-03-29T09:05:06.686Z,3.20
2023-03-29T09:10:14.546Z,4.13
2023-03-29T09:12:52.779Z,3.90
2023-03-29T09:15:26.039Z,2.67
2023-03-29T09:18:13.072Z,2.95
2023-03-29T09:20:49.419Z,2.85
2023-03-29T09:23:29.534Z,2.70
2023-03-29T09:26:21.094Z,3.35
2023-03-29T09:29:10.311Z,4.13
2023-03-29T09:31:44.963Z,3.30
2023-03-29T09:34:16.349Z,2.80
2023-03-29T09:37:02.665Z,3.35
2023-03-29T09:39:31.885Z,2.83
2023-03-29T09:42:12.123Z,3.28
2023-03-29T09:44:44.966Z,3.65
2023-03-29T09:47:24.883Z,3.17
2023-03-29T09:49:57.647Z,3.00
2023-03-29T09:52:26.755Z,3.33
2023-03-29T09:55:06.657Z,2.70
2023-03-29T10:00:24.830Z,3.17
2023-03-29T10:02:59.035Z,2.60
2023-03-29T10:05:43.049Z,2.80
2023-03-29T10:08:20.450Z,3.00
2023-03-29T10:10:49.720Z,3.38
2023-03-29T10:13:23.181Z,3.08
2023-03-29T10:16:00.087Z,2.70
2023-03-29T10:18:31.670Z,2.80
2023-03-29T10:21:02.582Z,3.80
2023-03-29T10:23:33.733Z,3.63
2023-03-29T10:26:04.315Z,3.15
2023-03-29T10:28:33.650Z,2.85
2023-03-29T10:31:04.331Z,3.22
2023-03-29T10:33:35.965Z,3.03
2023-03-29T10:36:07.762Z,3.15
2023-03-29T10:38:38.307Z,2.97
2023-03-29T10:41:08.097Z,2.80
2023-03-29T10:43:38.601Z,2.85
2023-03-29T10:46:10.877Z,2.40
2023-03-29T10:48:46.436Z,2.40
2023-03-29T10:51:16.327Z,2.53
2023-03-29T10:53:45.293Z,2.45
2023-03-29T10:56:31.873Z,2.58
2023-03-29T10:59:11.149Z,2.53
2023-03-29T11:01:46.882Z,2.30
2023-03-29T11:04:26.028Z,2.95
2023-03-29T11:07:05.925Z,2.25
2023-03-29T11:09:44.418Z,2.17
2023-03-29T11:12:19.244Z,2.67
2023-03-29T11:14:57.282Z,3.30
2023-03-29T11:17:35.039Z,2.95
2023-03-29T11:20:15.926Z,2.40
2023-03-29T11:22:50.721Z,3.03
2023-03-29T11:25:29.770Z,2.63
2023-03-29T11:28:02.560Z,2.45
2023-03-29T11:30:34.325Z,2.65
2023-03-29T11:33:11.380Z,3.17
2023-03-29T11:35:49.013Z,2.60
2023-03-29T11:38:24.626Z,2.90
2023-03-29T11:40:59.269Z,2.97
2023-03-29T11:43:32.575Z,2.90
2023-03-29T11:46:04.501Z,2.78
2023-03-29T11:48:37.232Z,3.28
2023-03-29T11:51:12.534Z,3.17
2023-03-29T11:53:50.152Z,3.70
2023-03-29T11:56:26.303Z,2.28
2023-03-29T11:58:59.630Z,2.55
2023-03-29T12:01:34.267Z,2.83
2023-03-29T12:04:06.920Z,2.72
2023-03-29T12:06:42.228Z,3.08
2023-03-29T12:09:16.976Z,2.63
2023-03-29T12:11:53.998Z,3.35
2023-03-29T12:14:28.165Z,3.30
2023-03-29T12:17:02.233Z,3.80
2023-03-29T12:19:38.614Z,3.13
2023-03-29T12:22:11.918Z,3.15
2023-03-29T12:24:45.977Z,3.20
2023-03-29T12:27:26.557Z,3.33
2023-03-29T12:30:22.475Z,3.75
2023-03-29T12:33:05.878Z,3.50
2023-03-29T12:35:59.822Z,3.50
2023-03-29T12:39:13.850Z,3.17
2023-03-29T12:42:07.728Z,2.78
2023-03-29T12:45:00.209Z,5.20
2023-03-29T12:47:35.772Z,2.70
2023-03-29T12:50:04.845Z,2.72
2023-03-29T12:52:35.408Z,3.35
2023-03-29T12:55:18.849Z,2.95
2023-03-29T12:58:02.278Z,3.10
2023-03-29T13:00:34.949Z,2.88
2023-03-29T13:03:06.565Z,2.70
2023-03-29T13:05:38.334Z,2.78
2023-03-29T13:08:23.855Z,2.75
2023-03-29T13:10:57.935Z,3.05
2023-03-29T13:13:29.701Z,2.72
2023-03-29T13:16:11.141Z,1.77
2023-03-29T13:18:52.188Z,2.50
2023-03-29T13:21:27.515Z,2.20
2023-03-29T13:24:02.063Z,2.47
2023-03-29T13:26:43.994Z,2.70
2023-03-29T13:29:47.952Z,2.10
2023-03-29T13:32:28.798Z,2.30
2023-03-29T13:35:02.686Z,1.88
2023-03-29T13:37:40.315Z,1.90
2023-03-29T13:40:33.418Z,2.10
2023-03-29T13:43:11.883Z,1.80
2023-03-29T13:45:41.063Z,1.85
2023-03-29T13:48:26.482Z,1.98
2023-03-29T13:50:57.382Z,2.22
2023-03-29T13:53:30.506Z,2.60
2023-03-29T13:55:59.930Z,1.80
2023-03-29T13:58:36.066Z,1.95
2023-03-29T14:01:12.308Z,2.30
2023-03-29T14:03:44.861Z,2.03
2023-03-29T14:06:16.075Z,2.33
2023-03-29T14:08:48.544Z,2.20
2023-03-29T14:11:23.174Z,2.05
2023-03-29T14:13:56.274Z,1.92
2023-03-29T14:16:28.790Z,2.33
2023-03-29T14:19:00.362Z,1.88
2023-03-29T14:21:29.661Z,2.10
2023-03-29T14:24:01.748Z,1.90
2023-03-29T14:26:33.011Z,2.10
2023-03-29T14:29:04.627Z,2.45
2023-03-29T14:31:35.568Z,2.60
2023-03-29T14:34:08.013Z,2.50
2023-03-29T14:36:38.871Z,2.85
2023-03-29T14:39:13.853Z,3.08
2023-03-29T14:41:47.560Z,3.38
2023-03-29T14:44:18.890Z,3.25
2023-03-29T14:46:48.168Z,2.75
2023-03-29T14:49:19.513Z,2.67
2023-03-29T14:54:21.181Z,2.78
2023-03-29T14:56:50.681Z,3.22
2023-03-29T14:59:29.586Z,3.40
2023-03-29T15:01:58.120Z,4.32
2023-03-29T15:04:34.165Z,3.17
2023-03-29T15:07:04.379Z,3.05
2023-03-29T15:09:35.431Z,3.38
2023-03-29T15:12:04.811Z,3.63
2023-03-29T15:14:37.112Z,3.58
2023-03-29T15:17:08.455Z,3.13
2023-03-29T15:19:37.931Z,3.50
2023-03-29T15:22:11.466Z,3.85
2023-03-29T15:24:47.163Z,3.60
2023-03-29T15:27:17.553Z,3.97
2023-03-29T15:29:48.606Z,3.17
2023-03-29T15:32:33.682Z,3.50
2023-03-29T15:35:05.132Z,4.07
2023-03-29T15:37:34.202Z,4.10
2023-03-29T15:40:09.786Z,4.05
2023-03-29T15:42:39.258Z,3.10
2023-03-29T15:45:16.451Z,4.15
2023-03-29T15:47:45.664Z,4.68
2023-03-29T15:50:15.722Z,3.88
2023-03-29T15:52:44.294Z,4.32
2023-03-29T15:55:13.167Z,4.20
2023-03-29T15:57:44.404Z,3.47
2023-03-29T16:00:16.006Z,3.80
2023-03-29T16:02:45.265Z,4.18
2023-03-29T16:05:14.599Z,3.90
2023-03-29T16:07:43.220Z,3.63
2023-03-29T16:10:12.366Z,4.00
2023-03-29T16:12:41.965Z,4.55
2023-03-29T16:15:16.651Z,4.35
2023-03-29T16:17:45.680Z,4.35
2023-03-29T16:20:20.275Z,3.47
2023-03-29T16:22:49.057Z,4.18
2023-03-29T16:25:22.873Z,4.15
2023-03-29T16:27:52.782Z,4.10
2023-03-29T16:30:24.998Z,4.30
2023-03-29T16:32:54.040Z,4.05
2023-03-29T16:35:28.333Z,3.78
2023-03-29T16:37:57.062Z,4.00
2023-03-29T16:40:27.077Z,3.90
2023-03-29T16:42:56.529Z,3.88
2023-03-29T16:45:27.353Z,3.50
2023-03-29T16:47:57.084Z,3.92
2023-03-29T16:50:26.104Z,3.58
2023-03-29T16:52:54.788Z,2.85
2023-03-29T16:55:23.804Z,5.22
2023-03-29T16:57:53.557Z,5.20
2023-03-29T17:00:23.276Z,3.08
2023-03-29T17:02:53.817Z,4.20
2023-03-29T17:05:23.499Z,4.60
2023-03-29T17:07:53.113Z,4.70
2023-03-29T17:10:22.237Z,4.78
2023-03-29T17:12:51.519Z,5.00
2023-03-29T17:15:20.617Z,4.65
2023-03-29T17:17:49.579Z,5.53
2023-03-29T17:20:20.247Z,5.28
2023-03-29T17:22:52.263Z,5.35
2023-03-29T17:25:22.535Z,5.18
2023-03-29T17:27:51.863Z,6.07
2023-03-29T17:30:20.930Z,5.65
2023-03-29T17:32:50.040Z,4.50
2023-03-29T17:35:21.077Z,5.70
2023-03-29T17:37:49.677Z,5.88
2023-03-29T17:40:18.968Z,6.28
2023-03-29T17:42:48.876Z,5.43
2023-03-29T17:45:18.210Z,5.60
2023-03-29T17:47:47.529Z,5.07
2023-03-29T17:50:16.612Z,6.38
2023-03-29T17:52:46.636Z,5.45
2023-03-29T17:55:15.711Z,6.50
2023-03-29T17:57:45.255Z,7.53
2023-03-29T18:00:15.682Z,8.00
2023-03-29T18:05:14.487Z,10.05
2023-03-29T18:07:43.195Z,6.43
2023-03-29T18:10:13.877Z,8.05
2023-03-29T18:12:45.108Z,9.60
2023-03-29T18:15:14.116Z,9.30
2023-03-29T18:17:43.063Z,9.85
2023-03-29T18:20:13.142Z,9.48
2023-03-29T18:22:42.629Z,11.60
2023-03-29T18:25:14.808Z,12.85
2023-03-29T18:27:43.964Z,12.27
2023-03-29T18:30:14.127Z,9.40
2023-03-29T18:32:43.204Z,12.30
2023-03-29T18:35:12.284Z,11.85
2023-03-29T18:37:41.279Z,14.43
2023-03-29T18:40:10.814Z,13.70
2023-03-29T18:42:41.248Z,14.97
2023-03-29T18:45:10.900Z,12.48
2023-03-29T18:47:39.819Z,18.03
2023-03-29T18:50:09.682Z,19.38
2023-03-29T18:52:38.491Z,16.80
2023-03-29T18:55:08.598Z,19.05
2023-03-29T18:57:37.607Z,17.70
2023-03-29T19:00:12.738Z,15.38
2023-03-29T19:02:42.180Z,18.20
2023-03-29T19:05:11.347Z,18.65
2023-03-29T19:07:40.091Z,15.05
2023-03-29T19:10:10.005Z,19.15
2023-03-29T19:12:39.065Z,16.58
2023-03-29T19:15:12.257Z,15.93
2023-03-29T19:17:42.303Z,16.80
2023-03-29T19:20:12.511Z,15.48
2023-03-29T19:22:41.193Z,15.50
2023-03-29T19:25:12.998Z,12.07
2023-03-29T19:27:41.954Z,16.50
2023-03-29T19:30:13.535Z,15.23
2023-03-29T19:32:42.605Z,16.10
2023-03-29T19:35:12.970Z,18.50
2023-03-29T19:37:41.678Z,17.73
2023-03-29T19:40:11.325Z,18.02
2023-03-29T19:42:40.444Z,17.00
2023-03-29T19:45:12.446Z,17.20
2023-03-29T19:47:44.048Z,18.08
2023-03-29T19:50:13.988Z,17.67
2023-03-29T19:52:43.122Z,16.10
2023-03-29T19:55:12.803Z,19.98
2023-03-29T19:57:42.593Z,19.83
2023-03-29T20:00:15.116Z,17.38
2023-03-29T20:02:44.226Z,20.33
2023-03-29T20:05:14.086Z,19.73
2023-03-29T20:07:42.804Z,18.77
2023-03-29T20:10:12.373Z,17.08
2023-03-29T20:12:41.315Z,19.75
2023-03-29T20:15:12.557Z,19.27
2023-03-29T20:17:41.813Z,19.33
2023-03-29T20:20:13.828Z,22.45
2023-03-29T20:22:45.444Z,22.45
2023-03-29T20:25:14.508Z,23.20
2023-03-29T20:27:43.347Z,21.02
2023-03-29T20:30:14.805Z,22.52
2023-03-29T20:32:43.699Z,22.45
2023-03-29T20:35:12.848Z,22.08
2023-03-29T20:37:41.316Z,18.30
2023-03-29T20:40:11.555Z,19.30
2023-03-29T20:42:40.991Z,23.27
2023-03-29T20:45:18.751Z,20.87
2023-03-29T20:47:57.814Z,22.42
2023-03-29T20:50:27.460Z,21.80
2023-03-29T20:52:56.284Z,22.33
2023-03-29T20:55:25.650Z,24.20
2023-03-29T20:57:56.634Z,21.20
2023-03-29T21:00:25.777Z,24.00
2023-03-29T21:02:58.863Z,23.27
2023-03-29T21:05:28.873Z,23.08
2023-03-29T21:07:57.540Z,21.13
2023-03-29T21:10:27.575Z,22.25
2023-03-29T21:13:00.431Z,22.70
2023-03-29T21:15:31.068Z,23.27
2023-03-29T21:20:30.408Z,24.88
2023-03-29T21:23:00.359Z,30.23
2023-03-29T21:25:29.388Z,30.23
2023-03-29T21:27:58.339Z,24.98
2023-03-29T21:30:28.839Z,26.67
2023-03-29T21:32:59.195Z,23.25
2023-03-29T21:35:29.518Z,24.60
2023-03-29T21:40:26.909Z,27.45
2023-03-29T21:42:55.960Z,25.38
2023-03-29T21:45:25.094Z,25.98
2023-03-29T21:47:54.048Z,27.45
2023-03-29T21:50:22.981Z,23.27
2023-03-29T21:52:52.987Z,23.85
2023-03-29T21:57:50.553Z,20.08
2023-03-29T22:00:19.490Z,21.58
2023-03-29T22:02:48.521Z,23.88
2023-03-29T22:05:17.655Z,23.55
2023-03-29T22:07:50.443Z,19.77
2023-03-29T22:27:46.706Z,23.08
2023-03-29T22:30:27.809Z,19.83
2023-03-29T22:37:46.316Z,22.35
2023-03-29T22:44:04.050Z,17.17
2023-03-29T22:58:37.524Z,14.90
2023-03-29T23:01:28.062Z,14.10
2023-03-29T23:08:37.622Z,13.07
2023-03-29T23:14:56.320Z,14.27
2023-03-29T23:21:18.623Z,10.48
2023-03-29T23:31:10.691Z,12.77
2023-03-29T23:40:47.219Z,14.05
2023-03-29T23:44:00.432Z,12.38
2023-03-29T23:46:41.761Z,10.35
2023-03-29T23:49:23.976Z,11.55
2023-03-29T23:59:58.281Z,10.40
